sensor_id;sensor_type;location;lat;lon;timestamp;pressure;altitude;pressure_sealevel;temperature;humidity
13124;BME280;6627;50.920;12.050;2023-11-19T00:00:10;98502.78;;;12.60;53.62
13124;BME280;6627;50.920;12.050;2023-11-19T00:02:38;98589.94;;;13.24;53.43
13124;BME280;6627;50.920;12.050;2023-11-19T00:05:06;98459.03;;;12.35;53.63
13124;BME280;6627;50.920;12.050;2023-11-19T00:07:35;98644.97;;;14.50;50.81
13124;BME280;6627;50.920;12.050;2023-11-19T00:10:04;98569.28;;;13.87;51.20
13124;BME280;6627;50.920;12.050;2023-11-19T00:12:33;98555.16;;;13.94;51.14
13124;BME280;6627;50.920;12.050;2023-11-19T00:15:01;98525.84;;;13.53;51.64
13124;BME280;6627;50.920;12.050;2023-11-19T00:17:30;98509.34;;;12.76;53.33
13124;BME280;6627;50.920;12.050;2023-11-19T00:19:58;98576.56;;;13.66;52.35
13124;BME280;6627;50.920;12.050;2023-11-19T00:22:25;98608.56;;;14.46;51.00
13124;BME280;6627;50.920;12.050;2023-11-19T00:24:52;98647.09;;;14.95;50.52
13124;BME280;6627;50.920;12.050;2023-11-19T00:27:19;98545.25;;;13.89;51.35
13124;BME280;6627;50.920;12.050;2023-11-19T00:29:47;98611.56;;;13.85;53.13
13124;BME280;6627;50.920;12.050;2023-11-19T00:32:14;98568.91;;;13.98;52.23
13124;BME280;6627;50.920;12.050;2023-11-19T00:34:45;98554.66;;;14.01;52.00
13124;BME280;6627;50.920;12.050;2023-11-19T00:37:14;98584.81;;;14.55;51.07
13124;BME280;6627;50.920;12.050;2023-11-19T00:39:41;98472.16;;;14.00;50.77
13124;BME280;6627;50.920;12.050;2023-11-19T00:42:10;98572.00;;;14.47;51.28
13124;BME280;6627;50.920;12.050;2023-11-19T00:44:37;98570.50;;;14.87;50.15
13124;BME280;6627;50.920;12.050;2023-11-19T00:47:05;98518.41;;;14.09;51.11
13124;BME280;6627;50.920;12.050;2023-11-19T00:49:32;98542.84;;;15.10;49.57
13124;BME280;6627;50.920;12.050;2023-11-19T00:52:01;98396.94;;;13.96;50.37
13124;BME280;6627;50.920;12.050;2023-11-19T00:54:29;98560.13;;;15.47;48.79
13124;BME280;6627;50.920;12.050;2023-11-19T00:56:56;98445.06;;;14.46;49.82
13124;BME280;6627;50.920;12.050;2023-11-19T00:59:23;98546.25;;;15.07;50.13
13124;BME280;6627;50.920;12.050;2023-11-19T01:01:50;98509.44;;;14.59;50.67
13124;BME280;6627;50.920;12.050;2023-11-19T01:04:18;98528.44;;;14.88;50.35
13124;BME280;6627;50.920;12.050;2023-11-19T01:06:45;98526.16;;;14.91;50.27
13124;BME280;6627;50.920;12.050;2023-11-19T01:09:14;98442.19;;;14.30;50.59
13124;BME280;6627;50.920;12.050;2023-11-19T01:11:41;98440.00;;;13.94;51.57
13124;BME280;6627;50.920;12.050;2023-11-19T01:14:08;98438.03;;;14.03;51.34
13124;BME280;6627;50.920;12.050;2023-11-19T01:16:35;98422.38;;;13.41;53.06
13124;BME280;6627;50.920;12.050;2023-11-19T01:19:03;98494.53;;;14.35;52.05
13124;BME280;6627;50.920;12.050;2023-11-19T01:21:41;98413.06;;;14.01;51.99
13124;BME280;6627;50.920;12.050;2023-11-19T01:24:09;98513.41;;;14.82;51.76
13124;BME280;6627;50.920;12.050;2023-11-19T01:26:40;98359.13;;;13.73;51.77
13124;BME280;6627;50.920;12.050;2023-11-19T01:29:13;98461.59;;;14.70;51.54
13124;BME280;6627;50.920;12.050;2023-11-19T01:31:41;98435.25;;;14.32;51.84
13124;BME280;6627;50.920;12.050;2023-11-19T01:34:12;98450.63;;;14.91;50.99
13124;BME280;6627;50.920;12.050;2023-11-19T01:36:39;98425.13;;;14.12;52.51
13124;BME280;6627;50.920;12.050;2023-11-19T01:39:07;98406.69;;;13.97;52.32
13124;BME280;6627;50.920;12.050;2023-11-19T01:41:35;98477.16;;;14.49;52.34
13124;BME280;6627;50.920;12.050;2023-11-19T01:44:06;98513.75;;;14.60;52.78
13124;BME280;6627;50.920;12.050;2023-11-19T01:46:35;98568.63;;;15.33;51.77
13124;BME280;6627;50.920;12.050;2023-11-19T01:49:04;98433.25;;;14.42;52.17
13124;BME280;6627;50.920;12.050;2023-11-19T01:51:32;98387.09;;;13.82;52.80
13124;BME280;6627;50.920;12.050;2023-11-19T01:54:01;98355.47;;;13.69;52.90
13124;BME280;6627;50.920;12.050;2023-11-19T01:56:30;98487.09;;;14.45;53.07
13124;BME280;6627;50.920;12.050;2023-11-19T01:58:58;98458.13;;;14.61;52.46
13124;BME280;6627;50.920;12.050;2023-11-19T02:01:27;98485.00;;;14.42;53.44
13124;BME280;6627;50.920;12.050;2023-11-19T02:03:56;98431.81;;;14.23;53.33
13124;BME280;6627;50.920;12.050;2023-11-19T02:06:25;98521.31;;;15.29;52.29
13124;BME280;6627;50.920;12.050;2023-11-19T02:08:54;98489.97;;;15.48;51.43
13124;BME280;6627;50.920;12.050;2023-11-19T02:11:21;98407.38;;;15.02;51.41
13124;BME280;6627;50.920;12.050;2023-11-19T02:13:49;98508.16;;;15.44;52.09
13124;BME280;6627;50.920;12.050;2023-11-19T02:16:17;98448.09;;;15.31;51.25
13124;BME280;6627;50.920;12.050;2023-11-19T02:18:46;98392.16;;;14.68;51.99
13124;BME280;6627;50.920;12.050;2023-11-19T02:21:13;98436.31;;;14.94;52.38
13124;BME280;6627;50.920;12.050;2023-11-19T02:23:41;98453.03;;;14.93;52.99
13124;BME280;6627;50.920;12.050;2023-11-19T02:26:18;98282.25;;;13.34;53.99
13124;BME280;6627;50.920;12.050;2023-11-19T02:28:52;98465.25;;;14.86;53.11
13124;BME280;6627;50.920;12.050;2023-11-19T02:31:20;98390.06;;;14.31;54.03
13124;BME280;6627;50.920;12.050;2023-11-19T02:33:49;98432.31;;;14.37;54.77
13124;BME280;6627;50.920;12.050;2023-11-19T02:36:16;98463.75;;;15.10;53.78
13124;BME280;6627;50.920;12.050;2023-11-19T02:38:43;98430.81;;;15.27;52.41
13124;BME280;6627;50.920;12.050;2023-11-19T02:41:11;98389.25;;;14.85;53.57
13124;BME280;6627;50.920;12.050;2023-11-19T02:43:39;98400.75;;;14.91;53.65
13124;BME280;6627;50.920;12.050;2023-11-19T02:46:08;98431.84;;;14.77;54.88
13124;BME280;6627;50.920;12.050;2023-11-19T02:48:36;98425.50;;;14.85;54.47
13124;BME280;6627;50.920;12.050;2023-11-19T02:51:04;98366.38;;;14.65;53.87
13124;BME280;6627;50.920;12.050;2023-11-19T02:53:35;98440.50;;;15.61;52.90
13124;BME280;6627;50.920;12.050;2023-11-19T02:56:04;98452.13;;;15.83;52.95
13124;BME280;6627;50.920;12.050;2023-11-19T02:58:43;98422.75;;;15.43;53.05
13124;BME280;6627;50.920;12.050;2023-11-19T03:01:12;98370.78;;;15.52;52.48
13124;BME280;6627;50.920;12.050;2023-11-19T03:03:49;98346.09;;;15.60;51.61
13124;BME280;6627;50.920;12.050;2023-11-19T03:06:20;98303.94;;;14.72;53.01
13124;BME280;6627;50.920;12.050;2023-11-19T03:08:49;98411.97;;;15.47;52.93
13124;BME280;6627;50.920;12.050;2023-11-19T03:11:16;98409.47;;;15.78;51.98
13124;BME280;6627;50.920;12.050;2023-11-19T03:13:43;98348.97;;;15.15;52.60
13124;BME280;6627;50.920;12.050;2023-11-19T03:16:19;98369.41;;;15.09;53.47
13124;BME280;6627;50.920;12.050;2023-11-19T03:18:46;98338.06;;;15.27;52.77
13124;BME280;6627;50.920;12.050;2023-11-19T03:21:13;98318.19;;;15.14;52.84
13124;BME280;6627;50.920;12.050;2023-11-19T03:23:40;98295.16;;;14.54;53.89
13124;BME280;6627;50.920;12.050;2023-11-19T03:26:10;98388.31;;;15.38;53.30
13124;BME280;6627;50.920;12.050;2023-11-19T03:28:39;98312.81;;;14.81;53.30
13124;BME280;6627;50.920;12.050;2023-11-19T03:31:06;98333.94;;;15.09;53.16
13124;BME280;6627;50.920;12.050;2023-11-19T03:33:36;98376.50;;;14.77;54.65
13124;BME280;6627;50.920;12.050;2023-11-19T03:36:04;98392.97;;;16.27;51.23
13124;BME280;6627;50.920;12.050;2023-11-19T03:38:32;98396.56;;;16.03;52.34
13124;BME280;6627;50.920;12.050;2023-11-19T03:40:59;98394.66;;;16.32;51.17
13124;BME280;6627;50.920;12.050;2023-11-19T03:43:27;98309.16;;;15.51;51.76
13124;BME280;6627;50.920;12.050;2023-11-19T03:45:54;98310.31;;;15.25;52.21
13124;BME280;6627;50.920;12.050;2023-11-19T03:48:22;98351.84;;;15.96;51.16
13124;BME280;6627;50.920;12.050;2023-11-19T03:50:50;98409.38;;;16.15;51.82
13124;BME280;6627;50.920;12.050;2023-11-19T03:53:18;98318.72;;;15.32;52.16
13124;BME280;6627;50.920;12.050;2023-11-19T03:55:45;98313.81;;;15.50;51.89
13124;BME280;6627;50.920;12.050;2023-11-19T03:58:13;98377.81;;;15.89;52.14
13124;BME280;6627;50.920;12.050;2023-11-19T04:00:40;98352.16;;;15.54;52.49
13124;BME280;6627;50.920;12.050;2023-11-19T04:03:07;98363.75;;;15.51;53.19
13124;BME280;6627;50.920;12.050;2023-11-19T04:05:35;98401.75;;;15.68;53.82
13124;BME280;6627;50.920;12.050;2023-11-19T04:08:04;98338.84;;;16.05;52.46
13124;BME280;6627;50.920;12.050;2023-11-19T04:10:32;98431.47;;;16.50;52.34
13124;BME280;6627;50.920;12.050;2023-11-19T04:13:07;98377.59;;;15.95;53.00
13124;BME280;6627;50.920;12.050;2023-11-19T04:15:34;98285.09;;;15.04;54.06
13124;BME280;6627;50.920;12.050;2023-11-19T04:18:01;98336.00;;;15.12;54.95
13124;BME280;6627;50.920;12.050;2023-11-19T04:20:29;98339.88;;;15.11;54.90
13124;BME280;6627;50.920;12.050;2023-11-19T04:22:57;98339.81;;;14.62;56.13
13124;BME280;6627;50.920;12.050;2023-11-19T04:25:28;98359.91;;;15.27;54.75
13124;BME280;6627;50.920;12.050;2023-11-19T04:27:55;98464.06;;;15.91;54.99
13124;BME280;6627;50.920;12.050;2023-11-19T04:30:22;98452.75;;;16.69;53.34
13124;BME280;6627;50.920;12.050;2023-11-19T04:32:50;98265.88;;;15.00;54.96
13124;BME280;6627;50.920;12.050;2023-11-19T04:35:17;98262.72;;;14.28;56.26
13124;BME280;6627;50.920;12.050;2023-11-19T04:37:45;98377.78;;;14.25;59.77
13124;BME280;6627;50.920;12.050;2023-11-19T04:40:13;98563.78;;;16.21;58.19
13124;BME280;6627;50.920;12.050;2023-11-19T04:42:42;98426.28;;;16.73;53.60
13124;BME280;6627;50.920;12.050;2023-11-19T04:45:10;98321.81;;;15.96;54.03
13124;BME280;6627;50.920;12.050;2023-11-19T04:47:37;98302.16;;;15.01;55.69
13124;BME280;6627;50.920;12.050;2023-11-19T04:50:07;98377.38;;;15.75;55.41
13124;BME280;6627;50.920;12.050;2023-11-19T04:52:37;98363.03;;;15.78;55.59
13124;BME280;6627;50.920;12.050;2023-11-19T04:55:07;98305.09;;;15.20;55.80
13124;BME280;6627;50.920;12.050;2023-11-19T04:57:38;98375.50;;;16.04;55.50
13124;BME280;6627;50.920;12.050;2023-11-19T05:00:11;98262.81;;;14.89;55.75
13124;BME280;6627;50.920;12.050;2023-11-19T05:02:39;98425.41;;;16.29;55.57
13124;BME280;6627;50.920;12.050;2023-11-19T05:05:08;98416.38;;;16.97;53.34
13124;BME280;6627;50.920;12.050;2023-11-19T05:07:37;98344.09;;;16.54;53.80
13124;BME280;6627;50.920;12.050;2023-11-19T05:10:06;98291.38;;;16.09;53.25
13124;BME280;6627;50.920;12.050;2023-11-19T05:12:36;98288.13;;;15.51;55.27
13124;BME280;6627;50.920;12.050;2023-11-19T05:15:06;98435.88;;;16.67;54.73
13124;BME280;6627;50.920;12.050;2023-11-19T05:17:45;98303.94;;;15.09;56.60
13124;BME280;6627;50.920;12.050;2023-11-19T05:20:12;98302.06;;;15.74;54.72
13124;BME280;6627;50.920;12.050;2023-11-19T05:22:41;98322.59;;;15.19;57.02
13124;BME280;6627;50.920;12.050;2023-11-19T05:25:17;98298.50;;;15.33;56.12
13124;BME280;6627;50.920;12.050;2023-11-19T05:27:47;98292.47;;;14.91;57.25
13124;BME280;6627;50.920;12.050;2023-11-19T05:30:14;98350.78;;;15.23;57.32
13124;BME280;6627;50.920;12.050;2023-11-19T05:32:42;98362.03;;;15.46;57.66
13124;BME280;6627;50.920;12.050;2023-11-19T05:35:11;98340.81;;;15.92;55.75
13124;BME280;6627;50.920;12.050;2023-11-19T05:37:38;98355.91;;;16.86;53.13
13124;BME280;6627;50.920;12.050;2023-11-19T05:40:07;98343.13;;;16.18;55.20
13124;BME280;6627;50.920;12.050;2023-11-19T05:42:40;98313.75;;;15.87;55.27
13124;BME280;6627;50.920;12.050;2023-11-19T05:45:10;98356.69;;;15.74;56.68
13124;BME280;6627;50.920;12.050;2023-11-19T05:47:38;98351.22;;;15.74;57.03
13124;BME280;6627;50.920;12.050;2023-11-19T05:50:06;98347.34;;;15.75;56.96
13124;BME280;6627;50.920;12.050;2023-11-19T05:52:36;98323.69;;;15.79;56.57
13124;BME280;6627;50.920;12.050;2023-11-19T05:55:04;98272.66;;;15.43;56.37
13124;BME280;6627;50.920;12.050;2023-11-19T05:57:35;98308.00;;;15.76;56.72
13124;BME280;6627;50.920;12.050;2023-11-19T06:00:04;98321.88;;;15.59;57.91
13124;BME280;6627;50.920;12.050;2023-11-19T06:02:34;98336.25;;;16.24;55.32
13124;BME280;6627;50.920;12.050;2023-11-19T06:05:04;98291.56;;;15.88;55.79
13124;BME280;6627;50.920;12.050;2023-11-19T06:07:32;98363.88;;;16.07;56.88
13124;BME280;6627;50.920;12.050;2023-11-19T06:10:02;98337.59;;;15.37;57.78
13124;BME280;6627;50.920;12.050;2023-11-19T06:12:31;98325.31;;;15.68;56.87
13124;BME280;6627;50.920;12.050;2023-11-19T06:15:00;98324.63;;;15.22;57.86
13124;BME280;6627;50.920;12.050;2023-11-19T06:17:30;98353.28;;;15.41;57.89
13124;BME280;6627;50.920;12.050;2023-11-19T06:19:58;98352.09;;;15.91;56.74
13124;BME280;6627;50.920;12.050;2023-11-19T06:22:25;98365.75;;;15.91;57.33
13124;BME280;6627;50.920;12.050;2023-11-19T06:24:53;98335.66;;;15.50;57.42
13124;BME280;6627;50.920;12.050;2023-11-19T06:27:21;98374.34;;;16.17;56.57
13124;BME280;6627;50.920;12.050;2023-11-19T06:29:49;98353.84;;;16.11;56.17
13124;BME280;6627;50.920;12.050;2023-11-19T06:32:16;98392.63;;;16.57;56.11
13124;BME280;6627;50.920;12.050;2023-11-19T06:34:44;98349.78;;;16.61;55.06
13124;BME280;6627;50.920;12.050;2023-11-19T06:37:11;98343.91;;;15.91;56.36
13124;BME280;6627;50.920;12.050;2023-11-19T06:39:38;98379.22;;;16.52;55.55
13124;BME280;6627;50.920;12.050;2023-11-19T06:42:06;98338.22;;;15.83;55.92
13124;BME280;6627;50.920;12.050;2023-11-19T06:44:35;98353.94;;;15.86;56.51
13124;BME280;6627;50.920;12.050;2023-11-19T06:47:03;98323.91;;;15.86;55.73
13124;BME280;6627;50.920;12.050;2023-11-19T06:49:30;98401.47;;;17.26;54.52
13124;BME280;6627;50.920;12.050;2023-11-19T06:51:58;98310.56;;;16.25;55.04
13124;BME280;6627;50.920;12.050;2023-11-19T06:54:25;98342.09;;;15.82;56.70
13124;BME280;6627;50.920;12.050;2023-11-19T06:56:52;98359.78;;;15.73;57.37
13124;BME280;6627;50.920;12.050;2023-11-19T06:59:19;98374.72;;;16.03;57.20
13124;BME280;6627;50.920;12.050;2023-11-19T07:01:49;98355.09;;;15.61;57.71
13124;BME280;6627;50.920;12.050;2023-11-19T07:04:16;98411.31;;;16.27;57.32
13124;BME280;6627;50.920;12.050;2023-11-19T07:06:43;98364.69;;;16.07;56.96
13124;BME280;6627;50.920;12.050;2023-11-19T07:09:10;98444.44;;;16.94;56.92
13124;BME280;6627;50.920;12.050;2023-11-19T07:11:38;98329.00;;;16.72;54.54
13124;BME280;6627;50.920;12.050;2023-11-19T07:14:07;98386.44;;;16.60;56.37
13124;BME280;6627;50.920;12.050;2023-11-19T07:16:35;98366.88;;;16.58;55.91
13124;BME280;6627;50.920;12.050;2023-11-19T07:19:04;98338.84;;;16.05;56.05
13124;BME280;6627;50.920;12.050;2023-11-19T07:21:32;98409.31;;;16.39;56.72
13124;BME280;6627;50.920;12.050;2023-11-19T07:24:02;98363.56;;;16.64;54.94
13124;BME280;6627;50.920;12.050;2023-11-19T07:26:32;98396.91;;;16.70;55.55
13124;BME280;6627;50.920;12.050;2023-11-19T07:28:59;98294.91;;;16.10;54.89
13124;BME280;6627;50.920;12.050;2023-11-19T07:31:28;98363.19;;;16.10;56.34
13124;BME280;6627;50.920;12.050;2023-11-19T07:33:55;98322.97;;;15.95;55.99
13124;BME280;6627;50.920;12.050;2023-11-19T07:36:24;98325.19;;;15.40;57.54
13124;BME280;6627;50.920;12.050;2023-11-19T07:38:51;98307.41;;;15.83;55.95
13124;BME280;6627;50.920;12.050;2023-11-19T07:41:19;98349.19;;;15.59;57.04
13124;BME280;6627;50.920;12.050;2023-11-19T07:43:46;98380.59;;;16.18;57.02
13124;BME280;6627;50.920;12.050;2023-11-19T07:46:14;98382.25;;;16.34;56.21
13124;BME280;6627;50.920;12.050;2023-11-19T07:48:41;98393.31;;;16.26;56.78
13124;BME280;6627;50.920;12.050;2023-11-19T07:51:10;98329.22;;;16.23;55.31
13124;BME280;6627;50.920;12.050;2023-11-19T07:53:39;98435.97;;;16.43;57.67
13124;BME280;6627;50.920;12.050;2023-11-19T07:56:08;98365.41;;;16.60;55.58
13124;BME280;6627;50.920;12.050;2023-11-19T07:58:36;98410.22;;;16.44;57.04
13124;BME280;6627;50.920;12.050;2023-11-19T08:01:05;98397.41;;;16.20;57.42
13124;BME280;6627;50.920;12.050;2023-11-19T08:03:32;98448.66;;;16.63;57.34
13124;BME280;6627;50.920;12.050;2023-11-19T08:06:03;98425.22;;;17.37;54.91
13124;BME280;6627;50.920;12.050;2023-11-19T08:08:31;98406.34;;;17.32;54.60
13124;BME280;6627;50.920;12.050;2023-11-19T08:11:01;98416.09;;;16.58;56.38
13124;BME280;6627;50.920;12.050;2023-11-19T08:13:28;98440.22;;;17.44;54.98
13124;BME280;6627;50.920;12.050;2023-11-19T08:15:55;98386.78;;;16.86;55.16
13124;BME280;6627;50.920;12.050;2023-11-19T08:18:24;98422.22;;;17.11;55.59
13124;BME280;6627;50.920;12.050;2023-11-19T08:20:51;98432.38;;;17.74;53.82
13124;BME280;6627;50.920;12.050;2023-11-19T08:23:19;98428.59;;;17.47;54.47
13124;BME280;6627;50.920;12.050;2023-11-19T08:25:47;98444.50;;;17.88;53.60
13124;BME280;6627;50.920;12.050;2023-11-19T08:28:15;98437.16;;;17.45;54.62
13124;BME280;6627;50.920;12.050;2023-11-19T08:30:43;98420.81;;;17.49;54.59
13124;BME280;6627;50.920;12.050;2023-11-19T08:33:11;98446.78;;;17.23;55.65
13124;BME280;6627;50.920;12.050;2023-11-19T08:35:38;98427.09;;;17.33;54.68
13124;BME280;6627;50.920;12.050;2023-11-19T08:38:05;98446.25;;;17.65;54.70
13124;BME280;6627;50.920;12.050;2023-11-19T08:40:33;98441.00;;;17.92;53.92
13124;BME280;6627;50.920;12.050;2023-11-19T08:43:00;98423.81;;;17.12;55.53
13124;BME280;6627;50.920;12.050;2023-11-19T08:45:30;98451.78;;;18.35;53.21
13124;BME280;6627;50.920;12.050;2023-11-19T08:47:58;98436.06;;;17.97;53.65
13124;BME280;6627;50.920;12.050;2023-11-19T08:50:25;98462.91;;;18.43;53.39
13124;BME280;6627;50.920;12.050;2023-11-19T08:52:53;98493.50;;;19.22;52.43
13124;BME280;6627;50.920;12.050;2023-11-19T08:55:20;98446.69;;;19.15;51.40
13124;BME280;6627;50.920;12.050;2023-11-19T08:57:48;98411.38;;;18.52;52.20
13124;BME280;6627;50.920;12.050;2023-11-19T09:00:16;98479.47;;;18.85;52.39
13124;BME280;6627;50.920;12.050;2023-11-19T09:02:45;98433.53;;;17.88;53.81
13124;BME280;6627;50.920;12.050;2023-11-19T09:05:12;98453.22;;;17.94;54.25
13124;BME280;6627;50.920;12.050;2023-11-19T09:07:40;98491.09;;;18.78;52.84
13124;BME280;6627;50.920;12.050;2023-11-19T09:10:08;98440.22;;;18.46;52.58
13124;BME280;6627;50.920;12.050;2023-11-19T09:12:37;98422.47;;;18.20;53.16
13124;BME280;6627;50.920;12.050;2023-11-19T09:15:06;98488.88;;;18.49;53.86
13124;BME280;6627;50.920;12.050;2023-11-19T09:17:33;98469.38;;;18.54;53.16
13124;BME280;6627;50.920;12.050;2023-11-19T09:20:03;98453.44;;;18.98;51.93
13124;BME280;6627;50.920;12.050;2023-11-19T09:22:30;98416.22;;;17.84;53.99
13124;BME280;6627;50.920;12.050;2023-11-19T09:24:58;98490.34;;;18.81;53.02
13124;BME280;6627;50.920;12.050;2023-11-19T09:27:26;98496.00;;;18.88;53.04
13124;BME280;6627;50.920;12.050;2023-11-19T09:29:54;98586.53;;;19.47;52.78
13124;BME280;6627;50.920;12.050;2023-11-19T09:32:23;98489.75;;;18.53;53.68
13124;BME280;6627;50.920;12.050;2023-11-19T09:34:51;98494.59;;;18.59;53.75
13124;BME280;6627;50.920;12.050;2023-11-19T09:37:20;98510.25;;;19.36;52.54
13124;BME280;6627;50.920;12.050;2023-11-19T09:39:47;98523.81;;;19.95;51.69
13124;BME280;6627;50.920;12.050;2023-11-19T09:42:14;98511.09;;;19.40;52.75
13124;BME280;6627;50.920;12.050;2023-11-19T09:44:43;98510.81;;;19.91;51.46
13124;BME280;6627;50.920;12.050;2023-11-19T09:47:13;98515.25;;;20.00;51.13
13124;BME280;6627;50.920;12.050;2023-11-19T09:49:41;98503.91;;;19.78;51.36
13124;BME280;6627;50.920;12.050;2023-11-19T09:52:09;98467.41;;;19.55;51.49
13124;BME280;6627;50.920;12.050;2023-11-19T09:54:38;98522.91;;;20.36;50.70
13124;BME280;6627;50.920;12.050;2023-11-19T09:57:07;98439.44;;;19.72;50.46
13124;BME280;6627;50.920;12.050;2023-11-19T09:59:38;98522.91;;;20.36;50.40
13124;BME280;6627;50.920;12.050;2023-11-19T10:02:07;98443.56;;;19.85;50.00
13124;BME280;6627;50.920;12.050;2023-11-19T10:04:36;98484.16;;;20.22;50.00
13124;BME280;6627;50.920;12.050;2023-11-19T10:07:04;98429.38;;;20.36;48.86
13124;BME280;6627;50.920;12.050;2023-11-19T10:09:31;98497.88;;;21.09;48.25
13124;BME280;6627;50.920;12.050;2023-11-19T10:12:00;98419.91;;;20.64;48.12
13124;BME280;6627;50.920;12.050;2023-11-19T10:14:31;98445.72;;;20.86;47.88
13124;BME280;6627;50.920;12.050;2023-11-19T10:17:01;98433.22;;;20.96;47.34
13124;BME280;6627;50.920;12.050;2023-11-19T10:19:31;98385.56;;;20.51;47.68
13124;BME280;6627;50.920;12.050;2023-11-19T10:22:04;98397.34;;;20.88;46.86
13124;BME280;6627;50.920;12.050;2023-11-19T10:24:32;98397.16;;;21.08;46.70
13124;BME280;6627;50.920;12.050;2023-11-19T10:27:01;98411.16;;;20.92;47.10
13124;BME280;6627;50.920;12.050;2023-11-19T10:29:30;98334.38;;;20.46;46.85
13124;BME280;6627;50.920;12.050;2023-11-19T10:31:58;98365.56;;;20.95;46.46
13124;BME280;6627;50.920;12.050;2023-11-19T10:34:27;98290.47;;;20.20;46.40
13124;BME280;6627;50.920;12.050;2023-11-19T10:36:55;98313.59;;;20.15;47.03
13124;BME280;6627;50.920;12.050;2023-11-19T10:39:23;98319.03;;;20.45;46.57
13124;BME280;6627;50.920;12.050;2023-11-19T10:41:50;98253.97;;;20.23;45.60
13124;BME280;6627;50.920;12.050;2023-11-19T10:44:34;98305.91;;;20.65;45.58
13124;BME280;6627;50.920;12.050;2023-11-19T10:47:08;98221.09;;;20.33;44.76
13124;BME280;6627;50.920;12.050;2023-11-19T10:49:35;98274.56;;;20.77;44.53
13124;BME280;6627;50.920;12.050;2023-11-19T10:52:06;98183.72;;;20.29;44.45
13124;BME280;6627;50.920;12.050;2023-11-19T10:54:37;98225.75;;;20.70;44.50
13124;BME280;6627;50.920;12.050;2023-11-19T10:57:12;98245.63;;;20.97;43.54
13124;BME280;6627;50.920;12.050;2023-11-19T11:00:10;98113.91;;;20.00;44.01
13124;BME280;6627;50.920;12.050;2023-11-19T11:03:02;98151.91;;;19.90;44.78
13124;BME280;6627;50.920;12.050;2023-11-19T11:05:53;98135.09;;;19.96;44.35
13124;BME280;6627;50.920;12.050;2023-11-19T11:08:21;98161.75;;;19.91;44.78
13124;BME280;6627;50.920;12.050;2023-11-19T11:10:53;98170.31;;;19.86;45.04
13124;BME280;6627;50.920;12.050;2023-11-19T11:13:24;98173.16;;;19.94;44.98
13124;BME280;6627;50.920;12.050;2023-11-19T11:15:56;98196.63;;;20.25;44.69
13124;BME280;6627;50.920;12.050;2023-11-19T11:18:25;98193.31;;;20.08;45.34
13124;BME280;6627;50.920;12.050;2023-11-19T11:20:57;98152.22;;;19.82;44.96
13124;BME280;6627;50.920;12.050;2023-11-19T11:24:12;98196.50;;;20.10;45.29
13124;BME280;6627;50.920;12.050;2023-11-19T11:27:07;98150.91;;;19.38;45.98
13124;BME280;6627;50.920;12.050;2023-11-19T11:29:48;98226.88;;;20.25;45.01
13124;BME280;6627;50.920;12.050;2023-11-19T11:32:32;98298.00;;;21.04;44.77
13124;BME280;6627;50.920;12.050;2023-11-19T11:35:27;98190.84;;;20.33;44.42
13124;BME280;6627;50.920;12.050;2023-11-19T11:38:03;98304.03;;;21.24;44.18
13124;BME280;6627;50.920;12.050;2023-11-19T11:40:31;98260.13;;;21.46;43.28
13124;BME280;6627;50.920;12.050;2023-11-19T11:42:58;98278.59;;;21.41;43.67
13124;BME280;6627;50.920;12.050;2023-11-19T11:45:37;98261.91;;;21.20;44.15
13124;BME280;6627;50.920;12.050;2023-11-19T11:48:12;98250.13;;;21.23;43.39
13124;BME280;6627;50.920;12.050;2023-11-19T11:50:51;98265.84;;;21.19;43.90
13124;BME280;6627;50.920;12.050;2023-11-19T11:53:21;98259.25;;;21.31;43.61
13124;BME280;6627;50.920;12.050;2023-11-19T11:55:55;98208.28;;;21.00;43.24
13124;BME280;6627;50.920;12.050;2023-11-19T11:58:46;98170.88;;;20.91;42.84
13124;BME280;6627;50.920;12.050;2023-11-19T12:01:15;98204.78;;;20.51;43.81
13124;BME280;6627;50.920;12.050;2023-11-19T12:03:51;98096.47;;;19.81;43.72
13124;BME280;6627;50.920;12.050;2023-11-19T12:06:21;98180.59;;;20.78;42.95
13124;BME280;6627;50.920;12.050;2023-11-19T12:09:08;98174.44;;;20.96;42.67
13124;BME280;6627;50.920;12.050;2023-11-19T12:11:47;98150.84;;;20.95;42.60
13124;BME280;6627;50.920;12.050;2023-11-19T12:14:15;98191.03;;;21.10;42.54
13124;BME280;6627;50.920;12.050;2023-11-19T12:16:43;98168.63;;;21.08;41.98
13124;BME280;6627;50.920;12.050;2023-11-19T12:19:12;98072.97;;;20.35;42.67
13124;BME280;6627;50.920;12.050;2023-11-19T12:22:00;98103.44;;;20.60;42.60
13124;BME280;6627;50.920;12.050;2023-11-19T12:24:27;98072.31;;;20.05;42.94
13124;BME280;6627;50.920;12.050;2023-11-19T12:26:55;98055.25;;;19.81;43.17
13124;BME280;6627;50.920;12.050;2023-11-19T12:29:23;98076.53;;;20.39;42.18
13124;BME280;6627;50.920;12.050;2023-11-19T12:31:54;98022.59;;;19.73;42.68
13124;BME280;6627;50.920;12.050;2023-11-19T12:34:23;98047.63;;;20.08;42.69
13124;BME280;6627;50.920;12.050;2023-11-19T12:36:50;97984.59;;;19.41;42.82
13124;BME280;6627;50.920;12.050;2023-11-19T12:39:17;98016.22;;;19.61;43.04
13124;BME280;6627;50.920;12.050;2023-11-19T12:41:53;97993.34;;;19.54;42.60
13124;BME280;6627;50.920;12.050;2023-11-19T12:44:22;98058.91;;;19.93;42.86
13124;BME280;6627;50.920;12.050;2023-11-19T12:47:03;98039.22;;;19.90;42.47
13124;BME280;6627;50.920;12.050;2023-11-19T12:49:59;98074.19;;;20.41;41.73
13124;BME280;6627;50.920;12.050;2023-11-19T12:52:27;98141.53;;;21.17;41.24
13124;BME280;6627;50.920;12.050;2023-11-19T12:54:54;98032.50;;;20.36;41.43
13124;BME280;6627;50.920;12.050;2023-11-19T12:57:37;98022.28;;;20.33;41.13
13124;BME280;6627;50.920;12.050;2023-11-19T13:00:05;98065.78;;;20.75;41.05
13124;BME280;6627;50.920;12.050;2023-11-19T13:02:46;97970.63;;;20.05;41.06
13124;BME280;6627;50.920;12.050;2023-11-19T13:05:25;97944.69;;;19.99;40.84
13124;BME280;6627;50.920;12.050;2023-11-19T13:08:01;98013.63;;;20.34;40.88
13124;BME280;6627;50.920;12.050;2023-11-19T13:10:31;98007.41;;;20.45;40.73
13124;BME280;6627;50.920;12.050;2023-11-19T13:13:06;98068.22;;;20.87;40.81